Aérodrome :
LOGIN :

S'inscrire | Disclaimer

   EN    FR    IT 

 










Légende :    VFR   VFR Marginal   IFR   IFR Intensif   IFR Très Intensif
Visi : 
Plafond : 
>= 8 km
>= 3000ft
5 à 8 km
1000 à 3000 ft
1500m à 5 km
500 à 1000 ft
800 à 1500m
200 à 500 ft
< 800m
< 200 ft
Symboles :   Orages  Brouillard  Fortes neiges  Fortes précipitations  Vent > 20 kt
SIGMETs :   Divers  Orages  Givrage  Turbulence  Onde Orograph.  Cendres Volcan.






- Altitude de l'aérodrome : 7 ft
- Code IATA : VCE


LIPZ - Marco Polo Int. Venezia

DERNIER METAR :
  • 212350Z 04004KT 6000 NSC 07/06 Q1019 TEMPO 4000 BR

METARs EXPIRÉS :
  • 212320Z 03004KT 9999 SCT060 08/07 Q1019 NOSIG
  • 212250Z VRB02KT 9999 FEW060 09/08 Q1020 NOSIG
  • 212220Z 20004KT CAVOK 09/08 Q1020 NOSIG
  • 212150Z 21005KT CAVOK 09/08 Q1020 NOSIG
  • 212120Z 20004KT CAVOK 10/08 Q1020 NOSIG
  • 212050Z 20004KT CAVOK 10/09 Q1020 NOSIG
  • 212020Z 21006KT CAVOK 10/08 Q1021 NOSIG
  • 211950Z 20004KT CAVOK 10/08 Q1021 NOSIG
  • 211920Z 20004KT CAVOK 10/08 Q1021 NOSIG

TAF TAF LIPZ
Valide du 22 à 00h jusqu'au 23 à 06h UTC


212300Z 2200/2306 VRB05KT 9999 FEW040
TEMPO 2200/2205 4000 BR
BECMG 2218/2220 4000 RA
BECMG 2222/2224 16015KT
TEMPO 2303/2306 16015G25KT



MET'MAP, la Météo Aéronautique d'un coup d'oeil ! - Copyright ORBIFLY Décembre 2007 - Disclaimer

ORBIFLY MET'MAP TEAM :

Programmation & Développement : Alexandra Zaïnal
Sur une idée originale de : Baudouin d'Aumeries
Soutien technique & logistique : Manuel Goepfert
Assistance : Marc-Olivier Méhu




SOURCES & CREDITS :

   NOAA